Time;durP1;ratioP1;P1;durP2;ratioP2;P2;SDS_P1;SDS_P2;PMS_P1;PMS_P2;Temp;Humidity;BMP_temperature;BMP_pressure;BME280_temperature;BME280_humidity;BME280_pressure;Samples;Min_cycle;Max_cycle;Signal;HPM_P1;HPM_P2
2022/09/22 00:01:27;;;;;;;0.70;0.70;;;20.50;61.50;;;;;;5023302;28;43500;-59
2022/09/22 00:03:58;;;;;;;0.60;0.60;;;20.50;61.50;;;;;;5024644;28;43438;-59
2022/09/22 00:06:37;;;;;;;0.75;0.75;;;20.50;61.60;;;;;;5023365;28;44714;-59
2022/09/22 00:09:09;;;;;;;0.70;0.70;;;20.50;62.20;;;;;;5019841;28;43879;-59
2022/09/22 00:11:45;;;;;;;0.80;0.80;;;20.40;61.50;;;;;;5018470;28;44146;-59
2022/09/22 00:14:15;;;;;;;0.70;0.70;;;20.50;61.60;;;;;;5023798;28;43360;-58
2022/09/22 00:16:46;;;;;;;0.60;0.60;;;20.50;61.60;;;;;;5023489;28;44816;-59
2022/09/22 00:19:26;;;;;;;0.93;0.70;;;20.40;61.60;;;;;;5023694;28;43377;-59
2022/09/22 00:21:54;;;;;;;0.70;0.70;;;20.40;61.60;;;;;;5023468;28;43505;-59
2022/09/22 00:24:23;;;;;;;0.70;0.70;;;20.40;61.70;;;;;;5023758;28;43476;-59
2022/09/22 00:26:56;;;;;;;0.63;0.63;;;20.40;61.60;;;;;;5023123;28;45108;-59
2022/09/22 00:29:25;;;;;;;0.80;0.70;;;20.30;61.60;;;;;;5018321;28;43754;-58
2022/09/22 00:31:53;;;;;;;0.43;0.43;;;20.40;61.70;;;;;;5014437;28;43381;-59
2022/09/22 00:34:23;;;;;;;0.73;0.73;;;20.30;61.70;;;;;;5023212;28;43477;-59
2022/09/22 00:36:52;;;;;;;0.50;0.50;;;20.30;61.60;;;;;;5022585;28;44879;-59
2022/09/22 00:39:19;;;;;;;0.50;0.50;;;20.30;61.70;;;;;;5023077;28;43823;-58
2022/09/22 00:41:49;;;;;;;0.50;0.50;;;20.30;61.70;;;;;;5018379;28;43454;-59
2022/09/22 00:44:20;;;;;;;0.60;0.60;;;20.30;61.70;;;;;;5023484;28;43407;-59
2022/09/22 00:47:03;;;;;;;0.50;0.50;;;20.30;61.80;;;;;;5022924;28;44708;-59
2022/09/22 00:49:52;;;;;;;1.08;0.82;;;20.30;61.80;;;;;;5022284;28;43637;-59
2022/09/22 00:52:24;;;;;;;0.70;0.70;;;20.30;61.80;;;;;;5023192;28;43412;-59
2022/09/22 00:54:57;;;;;;;0.85;0.70;;;20.20;61.70;;;;;;5023049;28;43415;-59
2022/09/22 00:57:32;;;;;;;0.40;0.40;;;20.20;61.70;;;;;;5022074;28;45022;-59
2022/09/22 01:00:02;;;;;;;0.65;0.65;;;20.20;61.70;;;;;;5022974;28;43941;-59
2022/09/22 01:02:30;;;;;;;0.68;0.68;;;20.20;61.70;;;;;;5022678;28;43987;-59
2022/09/22 01:04:57;;;;;;;0.40;0.40;;;20.20;61.70;;;;;;5022596;28;43505;-59
2022/09/22 01:07:28;;;;;;;1.42;0.50;;;20.20;61.70;;;;;;5023030;28;44719;-59
2022/09/22 01:09:57;;;;;;;0.50;0.50;;;20.20;61.80;;;;;;5021648;28;43704;-59
2022/09/22 01:12:27;;;;;;;0.40;0.40;;;20.20;61.80;;;;;;5023081;28;43604;-58
2022/09/22 01:14:57;;;;;;;0.50;0.50;;;20.20;61.80;;;;;;5023412;28;43435;-59
2022/09/22 01:17:54;;;;;;;0.63;0.63;;;20.20;61.90;;;;;;5022066;28;44769;-59
2022/09/22 01:20:22;;;;;;;0.50;0.50;;;20.20;61.90;;;;;;5022189;28;43428;-59
2022/09/22 01:23:14;;;;;;;0.55;0.50;;;20.10;61.80;;;;;;5018342;28;43896;-59
2022/09/22 01:26:02;;;;;;;1.27;0.70;;;20.10;61.90;;;;;;5018623;28;43990;-59
2022/09/22 01:28:33;;;;;;;0.90;0.60;;;20.10;61.80;;;;;;5009781;28;43787;-59
2022/09/22 01:31:26;;;;;;;0.45;0.45;;;20.10;61.90;;;;;;5022249;28;43384;-59
2022/09/22 01:33:54;;;;;;;0.40;0.40;;;20.10;61.90;;;;;;5022841;28;43446;-59
2022/09/22 01:36:40;;;;;;;0.50;0.50;;;20.10;61.90;;;;;;5022236;28;43527;-59
2022/09/22 01:39:19;;;;;;;0.40;0.40;;;20.10;61.90;;;;;;5021875;28;43812;-59
2022/09/22 01:41:50;;;;;;;0.50;0.50;;;20.00;61.90;;;;;;5021690;28;43428;-58
2022/09/22 01:44:34;;;;;;;0.40;0.40;;;20.00;61.90;;;;;;5021807;28;43408;-59
2022/09/22 01:47:10;;;;;;;0.52;0.52;;;20.00;61.90;;;;;;5022463;28;43473;-58
2022/09/22 01:49:43;;;;;;;0.88;0.60;;;20.00;62.00;;;;;;5022029;28;43992;-59
2022/09/22 01:52:21;;;;;;;0.50;0.40;;;20.00;62.00;;;;;;5021826;28;43478;-59
2022/09/22 01:54:54;;;;;;;0.70;0.38;;;20.00;62.00;;;;;;5021888;28;43529;-59
2022/09/22 01:57:51;;;;;;;0.45;0.45;;;20.00;61.90;;;;;;5022128;28;43454;-59
2022/09/22 02:00:19;;;;;;;0.40;0.40;;;20.00;62.00;;;;;;5021223;28;44770;-58
2022/09/22 02:03:04;;;;;;;0.40;0.40;;;19.90;61.90;;;;;;5020857;28;43927;-59
2022/09/22 02:05:45;;;;;;;0.30;0.30;;;19.90;61.90;;;;;;5021874;28;43419;-58
2022/09/22 02:08:18;;;;;;;0.50;0.50;;;20.00;62.00;;;;;;5022062;28;43538;-58
2022/09/22 02:10:47;;;;;;;0.60;0.60;;;19.90;61.90;;;;;;5022028;28;44997;-59
2022/09/22 02:13:14;;;;;;;0.30;0.30;;;19.90;62.00;;;;;;5021766;28;43463;-58
2022/09/22 02:16:00;;;;;;;0.40;0.40;;;19.90;61.90;;;;;;5021948;28;43393;-59
2022/09/22 02:18:42;;;;;;;0.65;0.47;;;19.90;62.60;;;;;;5021637;28;43510;-59
2022/09/22 02:21:10;;;;;;;0.40;0.40;;;19.90;62.60;;;;;;5021256;28;44929;-59
2022/09/22 02:23:38;;;;;;;0.40;0.40;;;19.80;62.50;;;;;;5021732;28;43963;-59
2022/09/22 02:26:07;;;;;;;1.15;0.50;;;19.80;61.90;;;;;;5020966;28;43483;-58
2022/09/22 02:28:37;;;;;;;0.40;0.40;;;19.90;61.90;;;;;;5021578;28;43411;-59
2022/09/22 02:31:08;;;;;;;0.40;0.40;;;19.80;61.90;;;;;;5021697;28;44866;-59
2022/09/22 02:33:51;;;;;;;0.40;0.40;;;19.80;61.90;;;;;;5021974;28;43964;-59
2022/09/22 02:36:25;;;;;;;0.30;0.25;;;19.80;61.90;;;;;;5021323;28;43423;-58
2022/09/22 02:39:07;;;;;;;0.40;0.40;;;19.80;61.90;;;;;;5021685;28;43557;-58
2022/09/22 02:41:47;;;;;;;0.40;0.40;;;19.80;61.90;;;;;;5016946;28;44048;-59
2022/09/22 02:44:24;;;;;;;0.30;0.30;;;19.80;61.90;;;;;;5021970;28;43786;-59
2022/09/22 02:47:11;;;;;;;0.30;0.30;;;19.80;61.90;;;;;;5006103;28;43435;-58
2022/09/22 02:49:41;;;;;;;0.65;0.40;;;19.80;61.90;;;;;;5021155;28;43455;-59
2022/09/22 02:52:13;;;;;;;0.52;0.52;;;19.70;61.90;;;;;;5021628;28;44805;-59
2022/09/22 02:54:40;;;;;;;0.40;0.40;;;19.70;61.90;;;;;;5021834;28;43555;-59
2022/09/22 02:57:08;;;;;;;0.40;0.40;;;19.70;61.90;;;;;;5021704;28;43445;-59
2022/09/22 02:59:36;;;;;;;0.90;0.38;;;19.70;61.90;;;;;;5020638;28;43527;-59
2022/09/22 03:02:03;;;;;;;0.50;0.50;;;19.70;61.90;;;;;;5021788;28;44922;-59
2022/09/22 03:04:31;;;;;;;0.40;0.40;;;19.70;61.90;;;;;;5021783;28;44013;-58
2022/09/22 03:06:58;;;;;;;0.20;0.20;;;19.70;61.90;;;;;;5024719;28;43427;-59
2022/09/22 03:09:25;;;;;;;0.40;0.40;;;19.70;61.90;;;;;;5024490;28;43422;-59
2022/09/22 03:11:53;;;;;;;0.32;0.30;;;19.70;61.90;;;;;;5024901;28;44801;-58
2022/09/22 03:14:20;;;;;;;0.30;0.30;;;19.70;61.90;;;;;;5024337;28;43803;-58
2022/09/22 03:16:48;;;;;;;0.40;0.30;;;19.60;61.80;;;;;;5024198;28;43484;-58
2022/09/22 03:19:15;;;;;;;0.30;0.30;;;19.70;61.90;;;;;;5024510;28;43732;-59
2022/09/22 03:21:43;;;;;;;0.52;0.30;;;19.60;61.80;;;;;;5024528;28;44916;-58
2022/09/22 03:24:10;;;;;;;0.52;0.30;;;19.70;61.90;;;;;;5024415;28;43680;-59
2022/09/22 03:26:37;;;;;;;0.30;0.30;;;19.60;61.90;;;;;;5024342;28;43464;-59
2022/09/22 03:29:05;;;;;;;0.30;0.30;;;19.60;61.90;;;;;;5024696;28;43418;-59
2022/09/22 03:31:32;;;;;;;0.70;0.40;;;19.60;61.90;;;;;;5023746;28;44787;-59
2022/09/22 03:33:59;;;;;;;0.40;0.35;;;19.60;61.90;;;;;;5024862;28;43480;-59
2022/09/22 03:36:27;;;;;;;0.55;0.40;;;19.60;61.90;;;;;;5024553;28;43551;-58
2022/09/22 03:38:54;;;;;;;0.30;0.30;;;19.60;61.90;;;;;;5024734;28;43442;-58
2022/09/22 03:41:21;;;;;;;0.47;0.47;;;19.50;61.90;;;;;;5019094;28;44874;-58
2022/09/22 03:43:49;;;;;;;0.40;0.40;;;19.50;61.80;;;;;;5008437;28;43515;-59
2022/09/22 03:46:17;;;;;;;0.65;0.40;;;19.50;61.90;;;;;;5023638;28;43578;-59
2022/09/22 03:48:44;;;;;;;0.45;0.45;;;19.50;61.90;;;;;;5024346;28;43389;-59
2022/09/22 03:51:11;;;;;;;0.50;0.40;;;19.50;61.90;;;;;;5024054;28;44696;-58
2022/09/22 03:53:38;;;;;;;0.38;0.38;;;19.50;61.80;;;;;;5023325;28;43798;-58
2022/09/22 03:56:08;;;;;;;0.30;0.30;;;19.50;62.50;;;;;;5024268;28;43486;-59
2022/09/22 03:58:36;;;;;;;0.43;0.30;;;19.50;61.90;;;;;;5023302;28;43450;-59
2022/09/22 04:01:04;;;;;;;0.47;0.40;;;19.50;61.90;;;;;;5024156;28;44914;-59
2022/09/22 04:03:33;;;;;;;0.68;0.43;;;19.50;61.90;;;;;;5023489;28;43817;-58
2022/09/22 04:06:00;;;;;;;0.30;0.30;;;19.50;61.90;;;;;;5023603;28;43403;-59
2022/09/22 04:08:28;;;;;;;0.30;0.30;;;19.40;61.80;;;;;;5056049;28;43402;-59
2022/09/22 04:10:56;;;;;;;0.30;0.30;;;19.40;61.90;;;;;;5023663;28;44802;-59
2022/09/22 04:13:23;;;;;;;0.28;0.28;;;19.40;61.80;;;;;;5008038;28;43965;-59
2022/09/22 04:15:51;;;;;;;0.40;0.40;;;19.40;61.80;;;;;;5022951;28;43975;-59
2022/09/22 04:18:18;;;;;;;0.40;0.38;;;19.40;61.80;;;;;;5023776;28;43442;-58
2022/09/22 04:20:45;;;;;;;0.35;0.35;;;19.40;61.80;;;;;;5023218;28;44805;-59
2022/09/22 04:23:15;;;;;;;0.30;0.30;;;19.40;61.90;;;;;;5008687;28;43865;-59
2022/09/22 04:25:43;;;;;;;0.38;0.38;;;19.40;61.80;;;;;;5023980;28;43780;-58
2022/09/22 04:28:10;;;;;;;0.30;0.30;;;19.40;61.80;;;;;;5023670;28;43396;-58
2022/09/22 04:30:37;;;;;;;1.40;0.20;;;19.40;61.80;;;;;;5022996;28;44098;-59
2022/09/22 04:33:05;;;;;;;0.25;0.25;;;19.40;61.80;;;;;;5024089;28;44061;-59
2022/09/22 04:35:32;;;;;;;0.60;0.40;;;19.40;61.80;;;;;;5023035;28;43448;-59
2022/09/22 04:37:59;;;;;;;0.60;0.30;;;19.40;61.80;;;;;;5023957;28;44026;-58
2022/09/22 04:40:27;;;;;;;0.38;0.38;;;19.40;61.90;;;;;;5023416;28;44673;-59
2022/09/22 04:42:55;;;;;;;0.30;0.30;;;19.40;61.80;;;;;;5020083;28;43420;-58
2022/09/22 04:45:22;;;;;;;0.52;0.40;;;19.30;61.80;;;;;;5023415;28;43568;-59
2022/09/22 04:47:51;;;;;;;0.35;0.35;;;19.30;61.80;;;;;;5023013;28;43446;-59
2022/09/22 04:50:21;;;;;;;0.30;0.30;;;19.30;61.80;;;;;;5022998;28;44682;-59
2022/09/22 04:52:55;;;;;;;0.40;0.40;;;19.30;61.90;;;;;;5022879;28;43455;-59
2022/09/22 04:55:24;;;;;;;0.30;0.30;;;19.30;61.90;;;;;;5021700;28;43497;-59
2022/09/22 04:57:54;;;;;;;0.30;0.30;;;19.30;61.90;;;;;;5023390;28;43410;-58
2022/09/22 05:00:23;;;;;;;0.20;0.20;;;19.30;61.80;;;;;;5022534;28;44899;-58
2022/09/22 05:02:50;;;;;;;0.40;0.40;;;19.20;61.80;;;;;;5020299;28;43759;-59
2022/09/22 05:05:19;;;;;;;0.98;0.32;;;19.20;61.80;;;;;;5022444;28;43465;-58
2022/09/22 05:07:50;;;;;;;0.60;0.40;;;19.20;61.80;;;;;;5022980;28;43422;-59
2022/09/22 05:10:17;;;;;;;;;;;19.20;61.80;;;;;;5022760;28;44795;-58
2022/09/22 05:12:45;;;;;;;0.85;0.20;;;19.20;61.80;;;;;;5022631;28;43676;-59
2022/09/22 05:15:14;;;;;;;0.30;0.30;;;19.20;61.80;;;;;;5023049;28;43507;-59
2022/09/22 05:17:49;;;;;;;0.30;0.30;;;19.20;61.80;;;;;;5022585;28;43964;-59
2022/09/22 05:20:18;;;;;;;0.32;0.30;;;19.20;61.70;;;;;;5021255;28;45106;-58
2022/09/22 05:22:46;;;;;;;0.40;0.40;;;19.20;61.70;;;;;;5022454;28;43862;-58
2022/09/22 05:25:16;;;;;;;1.08;0.35;;;19.20;61.90;;;;;;5021610;28;43430;-58
2022/09/22 05:27:52;;;;;;;0.30;0.30;;;19.20;61.90;;;;;;5022259;28;43399;-59
2022/09/22 05:30:21;;;;;;;0.95;0.25;;;19.20;61.90;;;;;;5021997;28;44838;-58
2022/09/22 05:32:49;;;;;;;0.40;0.40;;;19.20;61.90;;;;;;5022357;28;43887;-58
2022/09/22 05:35:19;;;;;;;1.00;0.32;;;19.20;61.90;;;;;;5022139;28;43434;-59
2022/09/22 05:37:48;;;;;;;0.47;0.30;;;19.20;61.90;;;;;;5022005;28;43398;-58
2022/09/22 05:40:16;;;;;;;0.30;0.30;;;19.10;61.90;;;;;;5022456;28;43908;-58
2022/09/22 05:42:48;;;;;;;0.20;0.20;;;19.10;61.90;;;;;;5020737;28;43987;-58
2022/09/22 05:45:15;;;;;;;;;;;19.10;61.90;;;;;;5022337;28;43460;-57
2022/09/22 05:47:43;;;;;;;0.20;0.20;;;19.10;61.90;;;;;;5021632;28;43522;-58
2022/09/22 05:50:13;;;;;;;0.20;0.20;;;19.10;62.00;;;;;;5022458;28;44692;-58
2022/09/22 05:52:40;;;;;;;0.30;0.17;;;19.10;62.00;;;;;;5021751;28;43869;-58
2022/09/22 05:55:08;;;;;;;0.22;0.22;;;19.10;61.90;;;;;;5022254;28;43538;-58
2022/09/22 05:57:35;;;;;;;0.30;0.30;;;19.10;62.00;;;;;;5022072;28;43451;-58
2022/09/22 06:00:06;;;;;;;0.75;0.30;;;19.10;61.90;;;;;;5021538;28;44024;-58
2022/09/22 06:02:41;;;;;;;1.35;0.40;;;19.10;61.90;;;;;;5021641;28;44009;-59
2022/09/22 06:05:09;;;;;;;0.65;0.28;;;19.10;61.90;;;;;;5020382;28;43523;-58
2022/09/22 06:07:36;;;;;;;0.20;0.20;;;19.10;61.90;;;;;;5021840;28;43376;-58
2022/09/22 06:10:04;;;;;;;0.30;0.30;;;19.00;61.80;;;;;;5022742;28;44312;-58
2022/09/22 06:12:31;;;;;;;0.30;0.30;;;19.00;61.80;;;;;;5025956;28;43914;-58
2022/09/22 06:14:58;;;;;;;0.30;0.30;;;19.00;61.90;;;;;;5022039;28;43596;-58
2022/09/22 06:17:26;;;;;;;0.30;0.30;;;19.00;61.90;;;;;;5021781;28;43424;-58
2022/09/22 06:19:53;;;;;;;0.40;0.40;;;19.00;61.90;;;;;;5021639;28;44939;-58
2022/09/22 06:22:22;;;;;;;1.45;0.30;;;19.00;61.90;;;;;;5021701;28;43973;-59
2022/09/22 06:24:50;;;;;;;1.88;0.30;;;19.00;61.90;;;;;;5021776;28;43501;-58
2022/09/22 06:27:17;;;;;;;0.38;0.38;;;19.00;61.90;;;;;;5021250;28;43399;-58
2022/09/22 06:29:44;;;;;;;0.50;0.50;;;19.00;61.90;;;;;;5021496;28;44906;-58
2022/09/22 06:32:11;;;;;;;0.50;0.40;;;19.00;61.80;;;;;;5021945;28;43527;-58
2022/09/22 06:34:39;;;;;;;0.40;0.40;;;19.00;61.90;;;;;;5021079;28;43454;-58
2022/09/22 06:37:10;;;;;;;0.40;0.40;;;19.00;61.90;;;;;;5021732;28;43434;-58
2022/09/22 06:39:37;;;;;;;0.30;0.30;;;19.00;61.90;;;;;;5022801;28;44152;-58
2022/09/22 06:42:05;;;;;;;0.50;0.50;;;19.00;61.90;;;;;;5020794;28;43570;-59
2022/09/22 06:44:33;;;;;;;0.25;0.25;;;19.00;62.00;;;;;;5024656;28;43398;-60
2022/09/22 06:47:04;;;;;;;0.38;0.38;;;18.90;62.00;;;;;;5025579;28;43417;-58
2022/09/22 06:49:31;;;;;;;;;;;19.00;61.90;;;;;;5024373;28;44140;-59
2022/09/22 06:51:58;;;;;;;0.45;0.35;;;18.90;61.80;;;;;;5024878;28;43458;-59
2022/09/22 06:54:26;;;;;;;0.40;0.40;;;18.90;61.90;;;;;;5024602;28;43489;-59
2022/09/22 06:56:54;;;;;;;0.40;0.40;;;18.90;61.90;;;;;;5024745;28;43493;-59
2022/09/22 06:59:21;;;;;;;0.40;0.40;;;18.90;61.90;;;;;;5024279;28;44891;-58
2022/09/22 07:01:49;;;;;;;1.35;0.50;;;18.90;62.00;;;;;;5024413;28;43704;-58
2022/09/22 07:04:16;;;;;;;0.43;0.43;;;18.90;61.90;;;;;;5024820;28;43455;-58
2022/09/22 07:06:44;;;;;;;0.40;0.30;;;18.90;61.90;;;;;;5024276;28;43530;-58
2022/09/22 07:09:11;;;;;;;0.30;0.30;;;18.90;61.90;;;;;;5024681;28;43907;-58
2022/09/22 07:11:39;;;;;;;0.50;0.50;;;18.90;61.90;;;;;;5024270;28;43522;-58
2022/09/22 07:14:07;;;;;;;0.35;0.35;;;18.90;62.00;;;;;;5025129;28;43489;-58
2022/09/22 07:16:35;;;;;;;0.32;0.32;;;18.90;62.00;;;;;;5023906;28;43945;-58
2022/09/22 07:19:03;;;;;;;0.55;0.30;;;18.90;61.90;;;;;;5024447;28;44649;-58
2022/09/22 07:21:36;;;;;;;0.40;0.40;;;18.90;61.90;;;;;;5024010;28;43678;-59
2022/09/22 07:24:07;;;;;;;0.32;0.32;;;18.90;61.90;;;;;;5023589;28;43999;-59
2022/09/22 07:26:37;;;;;;;0.50;0.50;;;18.90;62.00;;;;;;5024128;28;43522;-58
2022/09/22 07:29:07;;;;;;;0.43;0.30;;;18.90;62.00;;;;;;5024950;28;43897;-59
2022/09/22 07:31:35;;;;;;;0.30;0.30;;;18.90;62.00;;;;;;5023633;28;44081;-58
2022/09/22 07:34:03;;;;;;;0.52;0.40;;;18.90;62.00;;;;;;5024522;28;43434;-58
2022/09/22 07:36:32;;;;;;;0.57;0.57;;;18.80;61.90;;;;;;5023829;28;43431;-58
2022/09/22 07:39:11;;;;;;;0.50;0.50;;;18.90;62.10;;;;;;5024543;28;44758;-59
2022/09/22 07:41:42;;;;;;;0.47;0.47;;;18.90;62.00;;;;;;5023335;28;43980;-58
2022/09/22 07:46:58;;;;;;;0.40;0.40;;;18.90;62.10;;;;;;5024293;28;43410;-59
2022/09/22 07:49:26;;;;;;;0.35;0.35;;;18.80;62.10;;;;;;5023822;28;45388;-58
2022/09/22 07:51:54;;;;;;;0.30;0.30;;;18.90;62.30;;;;;;5022236;28;43906;-59
2022/09/22 07:54:22;;;;;;;2.70;0.80;;;18.80;62.20;;;;;;5023866;28;43525;-58
2022/09/22 07:57:01;;;;;;;1.35;1.25;;;18.90;62.30;;;;;;5023966;28;43479;-58
2022/09/22 07:59:28;;;;;;;1.60;1.50;;;18.90;62.40;;;;;;5021791;28;44896;-58
2022/09/22 08:01:55;;;;;;;2.95;1.10;;;18.90;62.40;;;;;;5023762;28;43679;-59
2022/09/22 08:04:24;;;;;;;1.30;1.20;;;18.90;62.40;;;;;;5024087;28;43391;-58
2022/09/22 08:06:54;;;;;;;1.80;1.20;;;19.00;62.30;;;;;;5023076;28;43485;-58
2022/09/22 08:09:23;;;;;;;2.50;1.10;;;19.10;62.20;;;;;;5013657;28;45323;-58
2022/09/22 08:11:51;;;;;;;1.45;1.10;;;19.20;62.10;;;;;;5030665;28;43688;-58
2022/09/22 08:14:22;;;;;;;1.13;1.13;;;19.30;62.10;;;;;;5023776;28;43430;-58
2022/09/22 08:16:52;;;;;;;1.58;1.13;;;19.40;61.90;;;;;;5022808;28;43457;-58
2022/09/22 08:19:22;;;;;;;1.60;1.27;;;19.40;61.70;;;;;;5022845;28;46070;-59
2022/09/22 08:21:52;;;;;;;2.60;1.30;;;19.50;61.70;;;;;;5022802;28;43932;-58
2022/09/22 08:24:21;;;;;;;1.60;1.50;;;19.50;61.60;;;;;;5023545;28;43438;-58
2022/09/22 08:26:51;;;;;;;2.40;2.20;;;19.60;61.60;;;;;;5022681;28;43413;-58
2022/09/22 08:29:19;;;;;;;3.50;2.10;;;19.60;61.40;;;;;;5022923;28;44717;-58
2022/09/22 08:31:47;;;;;;;2.60;2.40;;;19.60;61.40;;;;;;5023054;28;43948;-59
2022/09/22 08:34:16;;;;;;;3.63;2.35;;;19.60;61.50;;;;;;5022877;28;43552;-62
2022/09/22 08:36:45;;;;;;;2.42;2.20;;;19.70;61.70;;;;;;5022941;28;43497;-61
2022/09/22 08:39:14;;;;;;;3.70;2.10;;;19.80;61.70;;;;;;5023174;28;45147;-60
2022/09/22 08:42:08;;;;;;;2.65;2.03;;;20.00;61.60;;;;;;5022633;28;43450;-60
2022/09/22 08:45:01;;;;;;;2.38;2.10;;;20.10;61.40;;;;;;5022827;28;43414;-61
2022/09/22 08:53:42;;;;;;;6.90;2.10;;;20.50;60.80;;;;;;5022686;28;44088;-60
2022/09/22 08:56:34;;;;;;;2.08;1.80;;;20.60;60.90;;;;;;5022738;28;43586;-60
2022/09/22 08:59:41;;;;;;;2.38;1.65;;;20.80;60.80;;;;;;5022843;28;43507;-61
2022/09/22 09:02:31;;;;;;;4.75;1.80;;;20.90;60.60;;;;;;5023069;28;44896;-60
2022/09/22 09:05:05;;;;;;;2.33;1.80;;;21.00;60.10;;;;;;5022624;28;43421;-60
2022/09/22 09:07:55;;;;;;;2.15;1.70;;;21.00;60.00;;;;;;5022786;28;43462;-60
2022/09/22 09:11:06;;;;;;;2.42;1.70;;;21.20;59.80;;;;;;5017709;28;43479;-60
2022/09/22 09:13:41;;;;;;;3.75;1.90;;;21.30;59.90;;;;;;4977362;28;46151;-60
2022/09/22 09:16:23;;;;;;;3.05;1.60;;;21.30;59.80;;;;;;5021541;28;43437;-59
2022/09/22 09:19:01;;;;;;;2.40;1.58;;;21.40;59.80;;;;;;5018738;28;43434;-59
2022/09/22 09:21:34;;;;;;;1.80;1.70;;;21.50;59.80;;;;;;5019401;28;43462;-60
2022/09/22 09:24:09;;;;;;;2.35;1.40;;;21.50;59.60;;;;;;5020546;28;44808;-59
2022/09/22 09:27:01;;;;;;;1.88;1.45;;;21.60;59.50;;;;;;5019349;28;44050;-60
2022/09/22 09:29:32;;;;;;;2.63;1.40;;;21.60;59.60;;;;;;5020950;28;43490;-60
2022/09/22 09:32:02;;;;;;;;;;;21.60;59.30;;;;;;5019978;28;43561;-60
2022/09/22 09:34:31;;;;;;;1.30;1.30;;;21.60;59.40;;;;;;5018862;28;44216;-61
2022/09/22 09:37:12;;;;;;;2.17;1.20;;;21.70;59.60;;;;;;5021610;28;43963;-59
2022/09/22 09:39:42;;;;;;;2.53;1.50;;;21.70;59.40;;;;;;5021260;28;43579;-59
2022/09/22 09:42:18;;;;;;;1.42;1.17;;;21.80;59.40;;;;;;5021808;28;43444;-59
2022/09/22 09:44:52;;;;;;;2.08;1.30;;;21.80;59.30;;;;;;5020676;28;45114;-59
2022/09/22 09:47:52;;;;;;;2.03;1.33;;;21.80;59.20;;;;;;5021372;28;43960;-59
2022/09/22 09:50:30;;;;;;;1.42;1.33;;;21.80;59.10;;;;;;5022736;28;43489;-59
2022/09/22 09:52:59;;;;;;;1.10;1.00;;;21.90;59.20;;;;;;5021594;28;43514;-60
2022/09/22 09:55:26;;;;;;;1.20;1.10;;;21.90;59.20;;;;;;5020218;28;44877;-60
2022/09/22 10:00:29;;;;;;;1.25;1.10;;;21.90;59.00;;;;;;5021266;28;43593;-59
2022/09/22 10:01:04;;;;;;;2.72;1.13;;;21.90;58.80;;;;;;5021186;28;43457;-59
2022/09/22 10:03:33;;;;;;;4.53;1.20;;;21.90;59.20;;;;;;5019989;28;43488;-60
2022/09/22 10:06:05;;;;;;;1.15;0.90;;;21.90;59.10;;;;;;5020364;28;43790;-59
2022/09/22 10:08:44;;;;;;;1.40;0.90;;;21.90;59.00;;;;;;5019817;28;43525;-60
2022/09/22 10:11:13;;;;;;;1.10;1.00;;;21.90;59.00;;;;;;5020997;28;43418;-60
2022/09/22 10:13:42;;;;;;;2.65;1.23;;;21.90;59.00;;;;;;5020460;28;43633;-59
2022/09/22 10:16:30;;;;;;;1.10;1.00;;;21.90;59.00;;;;;;5019555;28;44963;-59
2022/09/22 10:18:57;;;;;;;1.60;0.80;;;21.90;59.30;;;;;;5021147;28;43991;-60
2022/09/22 10:21:26;;;;;;;1.83;0.93;;;21.90;59.40;;;;;;5020326;28;43538;-59
2022/09/22 10:23:59;;;;;;;0.95;0.80;;;21.90;59.40;;;;;;5021493;28;43530;-59
2022/09/22 10:26:29;;;;;;;2.38;1.08;;;22.00;59.40;;;;;;5018612;28;44942;-59
2022/09/22 10:29:05;;;;;;;1.15;1.05;;;22.00;59.50;;;;;;5020747;28;43430;-60
2022/09/22 10:31:35;;;;;;;1.75;0.82;;;22.00;59.40;;;;;;5020905;28;43454;-59
2022/09/22 10:34:04;;;;;;;1.42;1.10;;;22.00;59.40;;;;;;5020882;28;43483;-60
2022/09/22 10:36:34;;;;;;;1.33;1.00;;;22.10;59.60;;;;;;5014847;28;44031;-59
2022/09/22 10:39:13;;;;;;;1.35;0.90;;;22.00;59.30;;;;;;5020797;28;43495;-60
2022/09/22 10:41:41;;;;;;;1.75;0.80;;;22.10;59.10;;;;;;5020988;28;43488;-59
2022/09/22 10:44:17;;;;;;;1.73;1.02;;;22.00;59.20;;;;;;5020808;28;43598;-59
2022/09/22 10:47:29;;;;;;;0.60;0.60;;;22.10;59.30;;;;;;5033323;28;43939;-59
2022/09/22 10:50:26;;;;;;;0.95;0.82;;;22.10;59.20;;;;;;5021213;28;43378;-59
2022/09/22 10:53:21;;;;;;;0.88;0.70;;;22.10;59.30;;;;;;5019937;28;43427;-60
2022/09/22 10:56:03;;;;;;;0.80;0.80;;;22.10;59.30;;;;;;5019785;28;43588;-59
2022/09/22 10:58:42;;;;;;;1.10;0.60;;;22.10;59.30;;;;;;5020458;28;44051;-60
2022/09/22 11:01:52;;;;;;;0.80;0.80;;;22.10;59.30;;;;;;5018525;28;43910;-60
2022/09/22 11:04:35;;;;;;;0.68;0.68;;;22.10;59.30;;;;;;5019658;28;43531;-59
2022/09/22 11:13:37;;;;;;;0.70;0.70;;;22.10;59.40;;;;;;5018934;28;43580;-60
2022/09/22 11:16:22;;;;;;;1.00;0.90;;;22.10;59.40;;;;;;5011441;28;43607;-59
2022/09/22 11:18:54;;;;;;;1.25;0.55;;;22.10;59.40;;;;;;5019435;28;43401;-59
2022/09/22 11:21:50;;;;;;;0.52;0.52;;;22.10;59.30;;;;;;5020236;28;45156;-59
2022/09/22 11:24:46;;;;;;;0.95;0.80;;;22.10;59.40;;;;;;5018777;28;43959;-60
2022/09/22 11:27:32;;;;;;;1.40;0.65;;;22.10;59.30;;;;;;5024022;28;43458;-59
2022/09/22 11:30:20;;;;;;;0.73;0.73;;;22.20;59.50;;;;;;5020583;28;43475;-59
2022/09/22 11:33:09;;;;;;;0.70;0.70;;;22.10;59.40;;;;;;5024173;28;44217;-59
2022/09/22 11:36:04;;;;;;;0.90;0.70;;;22.10;59.40;;;;;;5022975;28;44842;-59
2022/09/22 11:38:51;;;;;;;1.33;0.50;;;22.10;59.40;;;;;;5024158;28;43466;-59
2022/09/22 11:41:24;;;;;;;1.15;0.80;;;22.10;59.50;;;;;;5024112;28;43424;-60
2022/09/22 11:44:20;;;;;;;0.55;0.55;;;22.10;59.60;;;;;;5017932;28;44927;-59
2022/09/22 11:46:57;;;;;;;0.50;0.50;;;22.10;59.60;;;;;;5023427;28;43473;-59
2022/09/22 11:49:24;;;;;;;0.77;0.70;;;22.10;59.60;;;;;;5024044;28;43451;-59
2022/09/22 11:52:42;;;;;;;0.63;0.63;;;22.10;59.50;;;;;;5023626;28;43471;-59
2022/09/22 11:55:15;;;;;;;0.73;0.57;;;22.10;59.40;;;;;;5028301;28;44055;-59
2022/09/22 11:57:49;;;;;;;0.60;0.60;;;22.10;59.50;;;;;;5023732;28;43823;-59
2022/09/22 12:00:19;;;;;;;1.77;0.82;;;22.10;59.50;;;;;;5023164;28;43483;-60
2022/09/22 12:03:13;;;;;;;1.75;1.17;;;22.10;59.50;;;;;;5023848;28;43434;-59
2022/09/22 12:05:45;;;;;;;0.65;0.65;;;22.10;59.50;;;;;;5022825;28;44967;-59
2022/09/22 12:08:19;;;;;;;0.70;0.70;;;22.10;59.50;;;;;;5024163;28;44260;-60
2022/09/22 12:10:48;;;;;;;0.70;0.70;;;22.10;59.60;;;;;;5025641;28;43458;-60
2022/09/22 12:13:20;;;;;;;1.00;0.90;;;22.10;59.70;;;;;;5015370;28;43510;-60
2022/09/22 12:16:08;;;;;;;0.88;0.65;;;22.10;59.70;;;;;;5023137;28;45313;-60
2022/09/22 12:19:02;;;;;;;1.25;0.52;;;22.10;59.70;;;;;;5022480;28;43909;-60
2022/09/22 12:22:03;;;;;;;1.45;0.77;;;22.00;59.70;;;;;;5018924;28;43465;-60
2022/09/22 12:24:32;;;;;;;0.95;0.88;;;22.00;59.70;;;;;;5021288;28;43470;-60
2022/09/22 12:27:27;;;;;;;1.35;0.90;;;22.00;59.80;;;;;;5022999;28;43646;-59
2022/09/22 12:30:02;;;;;;;0.80;0.80;;;22.00;59.70;;;;;;5022082;28;43479;-60
2022/09/22 12:32:40;;;;;;;0.80;0.77;;;22.00;59.80;;;;;;5022427;28;43416;-59
2022/09/22 12:35:26;;;;;;;0.88;0.60;;;22.10;59.80;;;;;;5021559;28;43486;-59
2022/09/22 12:38:00;;;;;;;0.90;0.80;;;22.10;59.80;;;;;;5021567;28;44212;-59
2022/09/22 12:40:40;;;;;;;0.82;0.80;;;22.10;59.80;;;;;;5021711;28;43435;-59
2022/09/22 12:43:18;;;;;;;0.75;0.70;;;22.10;59.80;;;;;;5022559;28;43473;-59
2022/09/22 12:45:46;;;;;;;0.65;0.50;;;22.10;59.70;;;;;;5021252;28;43473;-60
2022/09/22 12:48:15;;;;;;;1.13;0.68;;;22.00;59.70;;;;;;5023017;28;44981;-60
2022/09/22 12:50:44;;;;;;;0.93;0.70;;;22.10;59.80;;;;;;5022985;28;43669;-60
2022/09/22 12:53:20;;;;;;;0.70;0.60;;;22.10;59.90;;;;;;5022784;28;43435;-59
2022/09/22 12:55:55;;;;;;;2.88;0.70;;;22.00;59.70;;;;;;5023239;28;43518;-61
2022/09/22 12:58:22;;;;;;;1.85;0.60;;;22.00;60.10;;;;;;5023024;28;44011;-61
2022/09/22 13:00:57;;;;;;;1.63;0.75;;;22.00;60.30;;;;;;5022389;28;43422;-60
2022/09/22 13:03:25;;;;;;;1.15;0.68;;;22.10;60.30;;;;;;5022841;28;43409;-60
2022/09/22 13:05:59;;;;;;;1.52;0.60;;;22.10;60.30;;;;;;5023037;28;43547;-60
2022/09/22 13:08:29;;;;;;;1.77;0.60;;;22.10;60.40;;;;;;5018368;28;44655;-60
2022/09/22 13:11:01;;;;;;;1.88;0.70;;;22.10;60.30;;;;;;5031646;28;43818;-60
2022/09/22 13:13:28;;;;;;;1.13;0.77;;;22.10;60.30;;;;;;5057082;28;43449;-60
2022/09/22 13:15:58;;;;;;;1.35;0.85;;;22.10;60.30;;;;;;5022673;28;43463;-60
2022/09/22 13:18:41;;;;;;;0.90;0.70;;;22.20;60.20;;;;;;5022369;28;44773;-60
2022/09/22 13:21:11;;;;;;;1.67;0.52;;;22.20;60.20;;;;;;5022665;28;43892;-59
2022/09/22 13:23:51;;;;;;;1.55;0.60;;;22.20;60.10;;;;;;5019150;28;43546;-59
2022/09/22 13:26:22;;;;;;;2.70;0.70;;;22.20;60.10;;;;;;5021677;28;43478;-60
2022/09/22 13:29:18;;;;;;;1.95;0.80;;;22.20;60.20;;;;;;5021398;28;44038;-60
2022/09/22 13:31:51;;;;;;;1.35;0.80;;;22.20;60.20;;;;;;5021499;28;43516;-59
2022/09/22 13:34:35;;;;;;;0.88;0.57;;;22.20;60.20;;;;;;5022094;28;43525;-59
2022/09/22 13:37:26;;;;;;;0.65;0.57;;;22.20;60.20;;;;;;5022344;28;43592;-59